sensor_id;sensor_type;location;lat;lon;timestamp;P1;durP1;ratioP1;P2;durP2;ratioP2
17648;SDS011;8943;51.110;-4.158;2023-04-01T01:28:54;14.63;;;2.73;;
17648;SDS011;8943;51.110;-4.158;2023-04-01T05:53:15;20.43;;;3.33;;
17648;SDS011;8943;51.110;-4.158;2023-04-01T05:55:47;20.87;;;4.37;;
17648;SDS011;8943;51.110;-4.158;2023-04-01T06:25:02;16.67;;;3.20;;
17648;SDS011;8943;51.110;-4.158;2023-04-01T06:28:22;19.53;;;3.47;;
17648;SDS011;8943;51.110;-4.158;2023-04-01T06:34:37;14.43;;;2.73;;
17648;SDS011;8943;51.110;-4.158;2023-04-01T06:37:35;19.83;;;3.13;;
17648;SDS011;8943;51.110;-4.158;2023-04-01T06:40:40;31.20;;;4.03;;
17648;SDS011;8943;51.110;-4.158;2023-04-01T06:43:31;15.63;;;2.43;;
17648;SDS011;8943;51.110;-4.158;2023-04-01T06:55:06;19.73;;;3.43;;
17648;SDS011;8943;51.110;-4.158;2023-04-01T07:41:36;17.53;;;2.80;;
17648;SDS011;8943;51.110;-4.158;2023-04-01T07:44:18;21.83;;;2.87;;
17648;SDS011;8943;51.110;-4.158;2023-04-01T07:47:05;13.70;;;2.00;;
17648;SDS011;8943;51.110;-4.158;2023-04-01T07:50:10;7.77;;;2.33;;
17648;SDS011;8943;51.110;-4.158;2023-04-01T07:52:47;22.37;;;3.83;;
17648;SDS011;8943;51.110;-4.158;2023-04-01T07:58:59;24.47;;;3.83;;
17648;SDS011;8943;51.110;-4.158;2023-04-01T08:02:12;14.67;;;2.90;;
17648;SDS011;8943;51.110;-4.158;2023-04-01T08:10:36;14.67;;;2.30;;
17648;SDS011;8943;51.110;-4.158;2023-04-01T08:13:14;19.00;;;3.07;;
17648;SDS011;8943;51.110;-4.158;2023-04-01T08:19:09;17.13;;;3.27;;
17648;SDS011;8943;51.110;-4.158;2023-04-01T08:22:26;18.93;;;3.57;;
17648;SDS011;8943;51.110;-4.158;2023-04-01T08:25:34;18.80;;;2.90;;
17648;SDS011;8943;51.110;-4.158;2023-04-01T08:30:41;19.83;;;4.07;;
17648;SDS011;8943;51.110;-4.158;2023-04-01T08:33:25;16.33;;;3.40;;
17648;SDS011;8943;51.110;-4.158;2023-04-01T08:48:16;23.40;;;3.63;;
17648;SDS011;8943;51.110;-4.158;2023-04-01T08:54:29;20.90;;;3.10;;
17648;SDS011;8943;51.110;-4.158;2023-04-01T08:57:11;17.67;;;3.70;;
17648;SDS011;8943;51.110;-4.158;2023-04-01T08:59:50;24.27;;;3.67;;
17648;SDS011;8943;51.110;-4.158;2023-04-01T09:02:48;10.43;;;2.27;;
17648;SDS011;8943;51.110;-4.158;2023-04-01T09:05:26;14.43;;;3.07;;
17648;SDS011;8943;51.110;-4.158;2023-04-01T09:08:16;21.00;;;2.87;;
17648;SDS011;8943;51.110;-4.158;2023-04-01T09:11:18;17.80;;;3.50;;
17648;SDS011;8943;51.110;-4.158;2023-04-01T09:14:12;20.47;;;3.90;;
17648;SDS011;8943;51.110;-4.158;2023-04-01T09:23:10;8.27;;;2.27;;
17648;SDS011;8943;51.110;-4.158;2023-04-01T09:26:13;8.23;;;1.60;;
17648;SDS011;8943;51.110;-4.158;2023-04-01T09:29:19;15.83;;;2.70;;
17648;SDS011;8943;51.110;-4.158;2023-04-01T09:32:10;11.00;;;2.10;;
17648;SDS011;8943;51.110;-4.158;2023-04-01T09:34:58;14.47;;;2.93;;
17648;SDS011;8943;51.110;-4.158;2023-04-01T09:37:35;14.20;;;2.30;;
17648;SDS011;8943;51.110;-4.158;2023-04-01T09:40:21;8.07;;;2.07;;
17648;SDS011;8943;51.110;-4.158;2023-04-01T09:46:11;12.20;;;2.20;;
17648;SDS011;8943;51.110;-4.158;2023-04-01T09:52:05;12.30;;;2.10;;
17648;SDS011;8943;51.110;-4.158;2023-04-01T09:54:56;16.90;;;2.57;;
17648;SDS011;8943;51.110;-4.158;2023-04-01T09:57:37;20.27;;;2.80;;
17648;SDS011;8943;51.110;-4.158;2023-04-01T10:00:46;17.37;;;3.03;;
17648;SDS011;8943;51.110;-4.158;2023-04-01T10:03:33;9.80;;;1.70;;
17648;SDS011;8943;51.110;-4.158;2023-04-01T10:12:55;7.53;;;1.80;;
17648;SDS011;8943;51.110;-4.158;2023-04-01T10:19:03;8.90;;;1.20;;
17648;SDS011;8943;51.110;-4.158;2023-04-01T10:25:18;10.97;;;2.10;;
17648;SDS011;8943;51.110;-4.158;2023-04-01T10:38:22;14.40;;;2.27;;
17648;SDS011;8943;51.110;-4.158;2023-04-01T10:41:25;13.90;;;1.93;;
17648;SDS011;8943;51.110;-4.158;2023-04-01T10:44:20;13.93;;;2.30;;
17648;SDS011;8943;51.110;-4.158;2023-04-01T10:59:20;11.53;;;2.43;;
17648;SDS011;8943;51.110;-4.158;2023-04-01T11:02:19;22.47;;;3.83;;
17648;SDS011;8943;51.110;-4.158;2023-04-01T11:08:49;18.23;;;2.87;;
17648;SDS011;8943;51.110;-4.158;2023-04-01T11:15:02;10.57;;;2.47;;
17648;SDS011;8943;51.110;-4.158;2023-04-01T11:20:55;10.17;;;2.10;;
17648;SDS011;8943;51.110;-4.158;2023-04-01T11:23:44;25.10;;;3.10;;
17648;SDS011;8943;51.110;-4.158;2023-04-01T11:26:33;6.10;;;1.70;;
17648;SDS011;8943;51.110;-4.158;2023-04-01T11:29:34;4.70;;;1.40;;
17648;SDS011;8943;51.110;-4.158;2023-04-01T11:38:49;7.33;;;1.87;;
17648;SDS011;8943;51.110;-4.158;2023-04-01T11:41:31;9.63;;;1.97;;
17648;SDS011;8943;51.110;-4.158;2023-04-01T11:47:10;10.90;;;1.87;;
17648;SDS011;8943;51.110;-4.158;2023-04-01T12:12:03;11.13;;;2.00;;
17648;SDS011;8943;51.110;-4.158;2023-04-01T12:17:33;7.60;;;1.83;;
17648;SDS011;8943;51.110;-4.158;2023-04-01T12:35:33;12.37;;;2.17;;
17648;SDS011;8943;51.110;-4.158;2023-04-01T12:38:27;9.87;;;2.07;;
17648;SDS011;8943;51.110;-4.158;2023-04-01T12:41:09;13.00;;;1.90;;
17648;SDS011;8943;51.110;-4.158;2023-04-01T12:43:54;6.50;;;1.77;;
17648;SDS011;8943;51.110;-4.158;2023-04-01T12:47:00;9.33;;;2.23;;
17648;SDS011;8943;51.110;-4.158;2023-04-01T12:53:17;5.87;;;1.30;;
17648;SDS011;8943;51.110;-4.158;2023-04-01T12:56:02;15.10;;;2.20;;
17648;SDS011;8943;51.110;-4.158;2023-04-01T12:58:56;8.63;;;1.80;;
17648;SDS011;8943;51.110;-4.158;2023-04-01T13:01:50;8.60;;;2.20;;
17648;SDS011;8943;51.110;-4.158;2023-04-01T13:04:46;12.17;;;2.50;;
17648;SDS011;8943;51.110;-4.158;2023-04-01T13:07:41;12.47;;;2.77;;
17648;SDS011;8943;51.110;-4.158;2023-04-01T13:10:30;9.57;;;1.97;;
17648;SDS011;8943;51.110;-4.158;2023-04-01T13:13:18;6.10;;;1.87;;
17648;SDS011;8943;51.110;-4.158;2023-04-01T13:16:07;7.17;;;2.10;;
17648;SDS011;8943;51.110;-4.158;2023-04-01T13:18:48;9.30;;;2.20;;
17648;SDS011;8943;51.110;-4.158;2023-04-01T13:21:28;9.47;;;2.20;;
17648;SDS011;8943;51.110;-4.158;2023-04-01T13:24:20;6.60;;;2.20;;
17648;SDS011;8943;51.110;-4.158;2023-04-01T13:26:56;7.20;;;1.60;;
17648;SDS011;8943;51.110;-4.158;2023-04-01T13:29:38;3.90;;;1.47;;
17648;SDS011;8943;51.110;-4.158;2023-04-01T13:32:13;6.70;;;2.37;;
17648;SDS011;8943;51.110;-4.158;2023-04-01T13:35:10;5.30;;;1.87;;
17648;SDS011;8943;51.110;-4.158;2023-04-01T13:37:54;5.73;;;1.40;;
17648;SDS011;8943;51.110;-4.158;2023-04-01T13:40:33;4.77;;;1.37;;
17648;SDS011;8943;51.110;-4.158;2023-04-01T13:43:25;10.43;;;2.07;;
17648;SDS011;8943;51.110;-4.158;2023-04-01T13:46:06;7.27;;;2.10;;
17648;SDS011;8943;51.110;-4.158;2023-04-01T13:48:53;5.97;;;2.00;;
17648;SDS011;8943;51.110;-4.158;2023-04-01T13:51:49;4.30;;;1.90;;
17648;SDS011;8943;51.110;-4.158;2023-04-01T13:54:38;5.07;;;1.47;;
17648;SDS011;8943;51.110;-4.158;2023-04-01T13:57:23;6.93;;;2.00;;
17648;SDS011;8943;51.110;-4.158;2023-04-01T14:00:23;10.07;;;2.47;;
17648;SDS011;8943;51.110;-4.158;2023-04-01T14:06:14;13.60;;;1.93;;
17648;SDS011;8943;51.110;-4.158;2023-04-01T14:09:35;8.40;;;2.10;;
17648;SDS011;8943;51.110;-4.158;2023-04-01T14:12:14;6.40;;;1.80;;
17648;SDS011;8943;51.110;-4.158;2023-04-01T14:14:57;10.60;;;2.40;;
17648;SDS011;8943;51.110;-4.158;2023-04-01T14:17:41;6.57;;;1.83;;
17648;SDS011;8943;51.110;-4.158;2023-04-01T14:20:25;5.07;;;1.50;;
17648;SDS011;8943;51.110;-4.158;2023-04-01T14:23:02;13.00;;;2.47;;
17648;SDS011;8943;51.110;-4.158;2023-04-01T14:25:54;6.97;;;2.20;;
17648;SDS011;8943;51.110;-4.158;2023-04-01T14:28:48;8.67;;;2.13;;
17648;SDS011;8943;51.110;-4.158;2023-04-01T14:31:31;5.63;;;1.87;;
17648;SDS011;8943;51.110;-4.158;2023-04-01T14:34:11;6.77;;;1.63;;
17648;SDS011;8943;51.110;-4.158;2023-04-01T14:36:55;6.37;;;1.77;;
17648;SDS011;8943;51.110;-4.158;2023-04-01T14:45:54;5.23;;;1.60;;
17648;SDS011;8943;51.110;-4.158;2023-04-01T14:48:51;4.53;;;1.40;;
17648;SDS011;8943;51.110;-4.158;2023-04-01T14:51:28;6.60;;;1.60;;
17648;SDS011;8943;51.110;-4.158;2023-04-01T14:54:03;8.47;;;1.30;;
17648;SDS011;8943;51.110;-4.158;2023-04-01T14:57:01;8.57;;;1.70;;
17648;SDS011;8943;51.110;-4.158;2023-04-01T14:59:33;6.10;;;1.57;;
17648;SDS011;8943;51.110;-4.158;2023-04-01T15:02:10;5.40;;;1.37;;
17648;SDS011;8943;51.110;-4.158;2023-04-01T15:04:58;7.10;;;1.73;;
17648;SDS011;8943;51.110;-4.158;2023-04-01T15:07:48;8.17;;;1.97;;
17648;SDS011;8943;51.110;-4.158;2023-04-01T15:10:42;7.20;;;1.80;;
17648;SDS011;8943;51.110;-4.158;2023-04-01T15:16:48;5.57;;;1.10;;
17648;SDS011;8943;51.110;-4.158;2023-04-01T15:19:43;5.70;;;1.47;;
17648;SDS011;8943;51.110;-4.158;2023-04-01T15:25:31;4.90;;;1.30;;
17648;SDS011;8943;51.110;-4.158;2023-04-01T15:28:13;2.77;;;1.13;;
17648;SDS011;8943;51.110;-4.158;2023-04-01T15:30:54;5.67;;;1.40;;
17648;SDS011;8943;51.110;-4.158;2023-04-01T15:33:30;5.67;;;1.50;;
17648;SDS011;8943;51.110;-4.158;2023-04-01T15:36:15;6.17;;;1.67;;
17648;SDS011;8943;51.110;-4.158;2023-04-01T15:38:57;7.80;;;1.90;;
17648;SDS011;8943;51.110;-4.158;2023-04-01T15:41:35;4.77;;;1.30;;
17648;SDS011;8943;51.110;-4.158;2023-04-01T15:50:23;3.60;;;1.00;;
17648;SDS011;8943;51.110;-4.158;2023-04-01T15:53:11;4.63;;;1.53;;
17648;SDS011;8943;51.110;-4.158;2023-04-01T15:56:08;4.23;;;1.40;;
17648;SDS011;8943;51.110;-4.158;2023-04-01T15:58:48;7.27;;;1.77;;
17648;SDS011;8943;51.110;-4.158;2023-04-01T16:01:32;7.30;;;1.23;;
17648;SDS011;8943;51.110;-4.158;2023-04-01T16:07:21;4.37;;;1.10;;
17648;SDS011;8943;51.110;-4.158;2023-04-01T16:10:37;4.87;;;1.23;;
17648;SDS011;8943;51.110;-4.158;2023-04-01T16:13:28;6.50;;;1.83;;
17648;SDS011;8943;51.110;-4.158;2023-04-01T16:16:19;5.03;;;1.50;;
17648;SDS011;8943;51.110;-4.158;2023-04-01T16:19:02;4.50;;;1.50;;
17648;SDS011;8943;51.110;-4.158;2023-04-01T16:21:43;5.27;;;1.27;;
17648;SDS011;8943;51.110;-4.158;2023-04-01T16:24:17;5.47;;;1.53;;
17648;SDS011;8943;51.110;-4.158;2023-04-01T16:26:53;4.20;;;1.20;;
17648;SDS011;8943;51.110;-4.158;2023-04-01T16:29:28;4.00;;;1.37;;
17648;SDS011;8943;51.110;-4.158;2023-04-01T16:32:09;6.77;;;1.73;;
17648;SDS011;8943;51.110;-4.158;2023-04-01T16:34:47;3.37;;;1.20;;
17648;SDS011;8943;51.110;-4.158;2023-04-01T16:37:31;5.20;;;1.23;;
17648;SDS011;8943;51.110;-4.158;2023-04-01T16:40:12;6.47;;;1.70;;
17648;SDS011;8943;51.110;-4.158;2023-04-01T16:42:52;4.57;;;1.23;;
17648;SDS011;8943;51.110;-4.158;2023-04-01T16:45:26;8.70;;;1.77;;
17648;SDS011;8943;51.110;-4.158;2023-04-01T16:48:05;6.00;;;1.47;;
17648;SDS011;8943;51.110;-4.158;2023-04-01T16:50:44;9.10;;;1.83;;
17648;SDS011;8943;51.110;-4.158;2023-04-01T16:53:25;10.23;;;2.37;;
17648;SDS011;8943;51.110;-4.158;2023-04-01T16:56:11;6.47;;;1.50;;
17648;SDS011;8943;51.110;-4.158;2023-04-01T16:58:57;14.13;;;2.30;;
17648;SDS011;8943;51.110;-4.158;2023-04-01T17:01:40;7.83;;;2.23;;
17648;SDS011;8943;51.110;-4.158;2023-04-01T17:04:23;9.53;;;1.77;;
17648;SDS011;8943;51.110;-4.158;2023-04-01T17:07:04;4.37;;;1.23;;
17648;SDS011;8943;51.110;-4.158;2023-04-01T17:13:14;3.47;;;1.00;;
17648;SDS011;8943;51.110;-4.158;2023-04-01T17:19:56;3.53;;;1.40;;
17648;SDS011;8943;51.110;-4.158;2023-04-01T17:22:37;5.53;;;1.23;;
17648;SDS011;8943;51.110;-4.158;2023-04-01T17:25:37;5.57;;;1.33;;
17648;SDS011;8943;51.110;-4.158;2023-04-01T17:28:20;5.50;;;1.60;;
17648;SDS011;8943;51.110;-4.158;2023-04-01T17:30:57;4.83;;;1.47;;
17648;SDS011;8943;51.110;-4.158;2023-04-01T17:33:43;10.47;;;2.00;;
17648;SDS011;8943;51.110;-4.158;2023-04-01T17:36:27;4.73;;;1.63;;
17648;SDS011;8943;51.110;-4.158;2023-04-01T17:39:13;3.20;;;1.37;;
17648;SDS011;8943;51.110;-4.158;2023-04-01T17:41:52;5.83;;;1.80;;
17648;SDS011;8943;51.110;-4.158;2023-04-01T17:44:31;4.77;;;1.30;;
17648;SDS011;8943;51.110;-4.158;2023-04-01T17:47:10;4.60;;;1.50;;
17648;SDS011;8943;51.110;-4.158;2023-04-01T17:49:57;5.93;;;2.00;;
17648;SDS011;8943;51.110;-4.158;2023-04-01T17:52:38;4.50;;;1.20;;
17648;SDS011;8943;51.110;-4.158;2023-04-01T17:58:18;5.07;;;1.67;;
17648;SDS011;8943;51.110;-4.158;2023-04-01T18:00:50;3.77;;;1.30;;
17648;SDS011;8943;51.110;-4.158;2023-04-01T18:03:37;4.17;;;1.73;;
17648;SDS011;8943;51.110;-4.158;2023-04-01T18:06:21;6.97;;;1.83;;
17648;SDS011;8943;51.110;-4.158;2023-04-01T18:08:59;3.73;;;1.00;;
17648;SDS011;8943;51.110;-4.158;2023-04-01T18:11:34;8.33;;;1.30;;
17648;SDS011;8943;51.110;-4.158;2023-04-01T18:14:26;5.70;;;1.20;;
17648;SDS011;8943;51.110;-4.158;2023-04-01T18:17:08;4.53;;;1.40;;
17648;SDS011;8943;51.110;-4.158;2023-04-01T18:19:48;4.63;;;1.27;;
17648;SDS011;8943;51.110;-4.158;2023-04-01T18:22:41;4.47;;;1.27;;
17648;SDS011;8943;51.110;-4.158;2023-04-01T18:25:17;5.50;;;1.87;;
17648;SDS011;8943;51.110;-4.158;2023-04-01T18:27:50;4.60;;;1.67;;
17648;SDS011;8943;51.110;-4.158;2023-04-01T18:30:26;4.07;;;1.73;;
17648;SDS011;8943;51.110;-4.158;2023-04-01T18:32:57;6.20;;;1.87;;
17648;SDS011;8943;51.110;-4.158;2023-04-01T18:35:34;6.07;;;1.63;;
17648;SDS011;8943;51.110;-4.158;2023-04-01T18:38:15;10.87;;;3.13;;
17648;SDS011;8943;51.110;-4.158;2023-04-01T18:40:47;4.20;;;1.67;;
17648;SDS011;8943;51.110;-4.158;2023-04-01T18:43:21;4.73;;;1.60;;
17648;SDS011;8943;51.110;-4.158;2023-04-01T18:46:06;8.23;;;2.07;;
17648;SDS011;8943;51.110;-4.158;2023-04-01T18:48:48;8.60;;;2.53;;
17648;SDS011;8943;51.110;-4.158;2023-04-01T18:51:20;14.80;;;8.37;;
17648;SDS011;8943;51.110;-4.158;2023-04-01T18:53:53;10.17;;;5.43;;
17648;SDS011;8943;51.110;-4.158;2023-04-01T18:56:26;6.87;;;3.27;;
17648;SDS011;8943;51.110;-4.158;2023-04-01T18:58:59;6.03;;;1.63;;
17648;SDS011;8943;51.110;-4.158;2023-04-01T19:01:35;6.33;;;2.47;;
17648;SDS011;8943;51.110;-4.158;2023-04-01T19:04:10;5.73;;;2.13;;
17648;SDS011;8943;51.110;-4.158;2023-04-01T19:06:48;6.23;;;2.27;;
17648;SDS011;8943;51.110;-4.158;2023-04-01T19:09:19;6.60;;;1.83;;
17648;SDS011;8943;51.110;-4.158;2023-04-01T19:15:02;8.37;;;1.50;;
17648;SDS011;8943;51.110;-4.158;2023-04-01T19:18:06;8.20;;;2.70;;
17648;SDS011;8943;51.110;-4.158;2023-04-01T19:20:51;6.37;;;1.57;;
17648;SDS011;8943;51.110;-4.158;2023-04-01T19:23:47;9.90;;;1.87;;
17648;SDS011;8943;51.110;-4.158;2023-04-01T19:26:34;11.43;;;2.40;;
17648;SDS011;8943;51.110;-4.158;2023-04-01T19:29:10;6.90;;;1.23;;
17648;SDS011;8943;51.110;-4.158;2023-04-01T19:31:54;9.70;;;1.97;;
17648;SDS011;8943;51.110;-4.158;2023-04-01T19:34:37;8.60;;;2.27;;
17648;SDS011;8943;51.110;-4.158;2023-04-01T19:37:18;6.70;;;1.73;;
17648;SDS011;8943;51.110;-4.158;2023-04-01T19:39:55;9.07;;;5.33;;
17648;SDS011;8943;51.110;-4.158;2023-04-01T19:42:32;7.17;;;3.43;;
17648;SDS011;8943;51.110;-4.158;2023-04-01T19:45:17;6.70;;;1.93;;
17648;SDS011;8943;51.110;-4.158;2023-04-01T19:47:57;5.37;;;1.70;;
17648;SDS011;8943;51.110;-4.158;2023-04-01T19:50:35;10.90;;;2.30;;
17648;SDS011;8943;51.110;-4.158;2023-04-01T19:53:12;7.63;;;1.70;;
17648;SDS011;8943;51.110;-4.158;2023-04-01T19:55:47;6.97;;;2.00;;
17648;SDS011;8943;51.110;-4.158;2023-04-01T19:58:21;6.50;;;1.47;;
17648;SDS011;8943;51.110;-4.158;2023-04-01T20:01:00;13.23;;;1.40;;
17648;SDS011;8943;51.110;-4.158;2023-04-01T20:03:34;9.20;;;1.80;;
17648;SDS011;8943;51.110;-4.158;2023-04-01T20:06:26;7.83;;;2.10;;
17648;SDS011;8943;51.110;-4.158;2023-04-01T20:09:26;12.07;;;2.13;;
17648;SDS011;8943;51.110;-4.158;2023-04-01T20:12:21;11.90;;;2.77;;
17648;SDS011;8943;51.110;-4.158;2023-04-01T20:15:00;5.80;;;1.30;;
17648;SDS011;8943;51.110;-4.158;2023-04-01T20:17:32;9.30;;;1.93;;
17648;SDS011;8943;51.110;-4.158;2023-04-01T20:20:15;5.63;;;2.07;;
17648;SDS011;8943;51.110;-4.158;2023-04-01T20:23:05;7.97;;;1.47;;
17648;SDS011;8943;51.110;-4.158;2023-04-01T20:25:48;8.60;;;3.73;;
17648;SDS011;8943;51.110;-4.158;2023-04-01T20:28:25;10.23;;;1.60;;
17648;SDS011;8943;51.110;-4.158;2023-04-01T20:31:10;9.17;;;2.77;;
17648;SDS011;8943;51.110;-4.158;2023-04-01T20:36:55;9.73;;;1.73;;
17648;SDS011;8943;51.110;-4.158;2023-04-01T20:39:43;7.63;;;2.83;;
17648;SDS011;8943;51.110;-4.158;2023-04-01T20:45:32;7.47;;;3.10;;
17648;SDS011;8943;51.110;-4.158;2023-04-01T20:48:11;8.77;;;3.50;;
17648;SDS011;8943;51.110;-4.158;2023-04-01T20:50:57;8.53;;;3.30;;
17648;SDS011;8943;51.110;-4.158;2023-04-01T20:53:34;7.20;;;3.17;;
17648;SDS011;8943;51.110;-4.158;2023-04-01T20:56:14;9.83;;;1.80;;
17648;SDS011;8943;51.110;-4.158;2023-04-01T20:58:53;3.83;;;1.10;;
17648;SDS011;8943;51.110;-4.158;2023-04-01T21:01:33;6.50;;;1.60;;
17648;SDS011;8943;51.110;-4.158;2023-04-01T21:04:14;6.97;;;1.90;;
17648;SDS011;8943;51.110;-4.158;2023-04-01T21:07:00;4.57;;;1.20;;
17648;SDS011;8943;51.110;-4.158;2023-04-01T21:09:43;7.60;;;1.70;;
17648;SDS011;8943;51.110;-4.158;2023-04-01T21:12:27;5.77;;;2.40;;
17648;SDS011;8943;51.110;-4.158;2023-04-01T21:15:12;6.17;;;2.07;;
17648;SDS011;8943;51.110;-4.158;2023-04-01T21:18:03;9.13;;;1.83;;
17648;SDS011;8943;51.110;-4.158;2023-04-01T21:20:54;8.63;;;2.00;;
17648;SDS011;8943;51.110;-4.158;2023-04-01T21:23:45;6.47;;;2.23;;
17648;SDS011;8943;51.110;-4.158;2023-04-01T21:26:40;4.70;;;1.47;;
17648;SDS011;8943;51.110;-4.158;2023-04-01T21:29:32;8.33;;;3.00;;
17648;SDS011;8943;51.110;-4.158;2023-04-01T21:32:11;9.70;;;1.73;;
17648;SDS011;8943;51.110;-4.158;2023-04-01T21:34:52;6.60;;;2.00;;
17648;SDS011;8943;51.110;-4.158;2023-04-01T21:40:24;7.33;;;1.43;;
17648;SDS011;8943;51.110;-4.158;2023-04-01T21:43:21;10.67;;;1.70;;
17648;SDS011;8943;51.110;-4.158;2023-04-01T21:46:11;4.87;;;1.77;;
17648;SDS011;8943;51.110;-4.158;2023-04-01T21:49:04;8.13;;;1.27;;
17648;SDS011;8943;51.110;-4.158;2023-04-01T21:51:53;7.13;;;2.00;;
17648;SDS011;8943;51.110;-4.158;2023-04-01T22:01:23;5.83;;;1.10;;
17648;SDS011;8943;51.110;-4.158;2023-04-01T22:04:10;10.50;;;1.50;;
17648;SDS011;8943;51.110;-4.158;2023-04-01T22:06:50;8.33;;;1.57;;
17648;SDS011;8943;51.110;-4.158;2023-04-01T22:09:24;6.20;;;1.47;;
17648;SDS011;8943;51.110;-4.158;2023-04-01T22:12:00;7.53;;;1.40;;
17648;SDS011;8943;51.110;-4.158;2023-04-01T22:14:37;10.53;;;1.67;;
17648;SDS011;8943;51.110;-4.158;2023-04-01T22:17:13;4.40;;;1.67;;
17648;SDS011;8943;51.110;-4.158;2023-04-01T22:19:51;4.97;;;1.63;;
17648;SDS011;8943;51.110;-4.158;2023-04-01T22:22:30;7.77;;;1.43;;
17648;SDS011;8943;51.110;-4.158;2023-04-01T22:25:18;10.40;;;1.57;;
17648;SDS011;8943;51.110;-4.158;2023-04-01T22:27:55;8.13;;;1.97;;
17648;SDS011;8943;51.110;-4.158;2023-04-01T22:30:31;6.53;;;1.37;;
17648;SDS011;8943;51.110;-4.158;2023-04-01T22:33:04;12.40;;;1.90;;
17648;SDS011;8943;51.110;-4.158;2023-04-01T22:35:39;8.10;;;1.77;;
17648;SDS011;8943;51.110;-4.158;2023-04-01T22:38:18;12.87;;;1.90;;
17648;SDS011;8943;51.110;-4.158;2023-04-01T22:40:58;7.93;;;1.77;;
17648;SDS011;8943;51.110;-4.158;2023-04-01T22:43:34;8.30;;;1.70;;
17648;SDS011;8943;51.110;-4.158;2023-04-01T22:46:12;10.00;;;2.13;;
17648;SDS011;8943;51.110;-4.158;2023-04-01T22:49:04;10.87;;;2.03;;
17648;SDS011;8943;51.110;-4.158;2023-04-01T22:51:41;10.73;;;2.07;;
17648;SDS011;8943;51.110;-4.158;2023-04-01T22:54:13;13.30;;;2.37;;
17648;SDS011;8943;51.110;-4.158;2023-04-01T22:56:48;10.73;;;2.23;;
17648;SDS011;8943;51.110;-4.158;2023-04-01T22:59:24;9.60;;;2.20;;
17648;SDS011;8943;51.110;-4.158;2023-04-01T23:02:00;11.13;;;2.17;;
17648;SDS011;8943;51.110;-4.158;2023-04-01T23:04:37;13.43;;;2.00;;
17648;SDS011;8943;51.110;-4.158;2023-04-01T23:07:18;12.40;;;2.50;;
17648;SDS011;8943;51.110;-4.158;2023-04-01T23:09:56;13.87;;;1.80;;
17648;SDS011;8943;51.110;-4.158;2023-04-01T23:12:25;13.40;;;1.90;;
17648;SDS011;8943;51.110;-4.158;2023-04-01T23:14:54;13.40;;;1.80;;
17648;SDS011;8943;51.110;-4.158;2023-04-01T23:17:32;6.60;;;1.63;;
17648;SDS011;8943;51.110;-4.158;2023-04-01T23:20:23;11.47;;;2.10;;
17648;SDS011;8943;51.110;-4.158;2023-04-01T23:23:05;11.77;;;2.23;;
17648;SDS011;8943;51.110;-4.158;2023-04-01T23:26:09;9.50;;;1.83;;
17648;SDS011;8943;51.110;-4.158;2023-04-01T23:28:44;5.57;;;1.90;;
17648;SDS011;8943;51.110;-4.158;2023-04-01T23:31:24;14.37;;;2.13;;
17648;SDS011;8943;51.110;-4.158;2023-04-01T23:33:55;13.53;;;2.33;;
17648;SDS011;8943;51.110;-4.158;2023-04-01T23:36:26;10.87;;;1.90;;
17648;SDS011;8943;51.110;-4.158;2023-04-01T23:38:55;9.37;;;1.73;;
17648;SDS011;8943;51.110;-4.158;2023-04-01T23:41:27;7.77;;;1.77;;
17648;SDS011;8943;51.110;-4.158;2023-04-01T23:43:59;8.43;;;1.80;;
17648;SDS011;8943;51.110;-4.158;2023-04-01T23:46:30;9.97;;;1.70;;
17648;SDS011;8943;51.110;-4.158;2023-04-01T23:49:02;6.50;;;1.90;;
17648;SDS011;8943;51.110;-4.158;2023-04-01T23:51:37;10.30;;;1.87;;
17648;SDS011;8943;51.110;-4.158;2023-04-01T23:54:11;13.00;;;1.80;;
17648;SDS011;8943;51.110;-4.158;2023-04-01T23:56:45;8.63;;;1.83;;
17648;SDS011;8943;51.110;-4.158;2023-04-01T23:59:17;8.17;;;1.83;;
